Time;durP1;ratioP1;P1;durP2;ratioP2;P2;SDS_P1;SDS_P2;PMS_P1;PMS_P2;Temp;Humidity;BMP_temperature;BMP_pressure;BME280_temperature;BME280_humidity;BME280_pressure;Samples;Min_cycle;Max_cycle;Signal;HPM_P1;HPM_P2
2023/06/01 00:00:55;;;;;;;3.22;1.60;;;11.10;99.90;;;;;;4961781;28;20093;-64
2023/06/01 00:03:23;;;;;;;2.30;1.52;;;11.10;99.90;;;;;;4960493;28;20047;-62
2023/06/01 00:05:51;;;;;;;2.47;1.73;;;11.10;99.90;;;;;;4960092;28;20062;-66
2023/06/01 00:08:18;;;;;;;2.28;0.80;;;11.00;99.90;;;;;;4959445;28;20106;-63
2023/06/01 00:10:45;;;;;;;1.80;1.60;;;11.00;99.90;;;;;;4976449;28;20047;-64
2023/06/01 00:13:11;;;;;;;3.25;2.13;;;11.00;99.90;;;;;;4964844;28;20516;-68
2023/06/01 00:15:38;;;;;;;1.67;1.13;;;11.00;99.90;;;;;;4964399;28;20062;-70
2023/06/01 00:18:05;;;;;;;1.65;1.33;;;10.90;99.90;;;;;;4964146;28;20081;-63
2023/06/01 00:20:32;;;;;;;2.72;1.65;;;10.90;99.90;;;;;;4962502;28;20062;-66
2023/06/01 00:23:00;;;;;;;3.67;1.77;;;10.90;99.90;;;;;;4963810;28;20066;-73
2023/06/01 00:25:27;;;;;;;3.60;1.25;;;10.90;99.90;;;;;;4964019;28;20062;-66
2023/06/01 00:27:54;;;;;;;1.80;1.42;;;10.90;99.90;;;;;;4964844;28;20058;-68
2023/06/01 00:30:21;;;;;;;3.95;1.40;;;10.80;99.90;;;;;;4961806;28;21022;-67
2023/06/01 00:32:48;;;;;;;2.55;1.42;;;10.80;99.90;;;;;;4964519;28;20058;-73
2023/06/01 00:35:15;;;;;;;1.98;1.52;;;10.80;99.90;;;;;;4962563;28;20051;-68
2023/06/01 00:37:41;;;;;;;4.40;2.03;;;10.70;99.90;;;;;;4978388;28;20043;-74
2023/06/01 00:40:09;;;;;;;2.25;1.40;;;10.70;99.90;;;;;;4963558;28;20153;-62
2023/06/01 00:42:36;;;;;;;1.48;1.33;;;10.70;99.90;;;;;;4962093;28;20413;-67
2023/06/01 00:45:04;;;;;;;1.55;1.35;;;10.60;99.90;;;;;;4961938;28;20460;-76
2023/06/01 00:47:39;;;;;;;3.17;1.75;;;10.60;99.90;;;;;;4964251;28;20681;-74
2023/06/01 00:50:06;;;;;;;3.00;1.45;;;10.50;99.90;;;;;;4960791;28;20166;-72
2023/06/01 00:52:34;;;;;;;1.85;1.48;;;10.50;99.90;;;;;;4962752;28;20050;-67
2023/06/01 00:55:01;;;;;;;2.72;2.00;;;10.40;99.90;;;;;;4962781;28;20047;-65
2023/06/01 00:57:28;;;;;;;2.40;2.20;;;10.40;99.90;;;;;;4962551;28;20062;-66
2023/06/01 00:59:56;;;;;;;2.85;1.90;;;10.40;99.90;;;;;;4959446;28;20492;-67
2023/06/01 01:02:23;;;;;;;1.40;1.30;;;10.40;99.90;;;;;;4958029;28;20046;-68
2023/06/01 01:04:52;;;;;;;2.60;1.80;;;10.40;99.90;;;;;;4958779;28;20481;-70
2023/06/01 01:07:29;;;;;;;3.42;2.20;;;10.40;99.90;;;;;;4961086;28;20113;-69
2023/06/01 01:10:06;;;;;;;2.10;1.80;;;10.40;99.90;;;;;;4972381;28;20059;-69
2023/06/01 01:12:50;;;;;;;2.80;1.95;;;10.40;99.90;;;;;;4961356;28;20094;-63
2023/06/01 01:15:33;;;;;;;5.30;2.88;;;10.50;99.90;;;;;;4960380;28;20062;-63
2023/06/01 01:18:05;;;;;;;3.13;1.95;;;10.40;99.90;;;;;;4961230;28;20047;-70
2023/06/01 01:20:38;;;;;;;1.90;1.73;;;10.40;99.90;;;;;;4961246;28;21543;-66
2023/06/01 01:23:13;;;;;;;1.45;1.33;;;10.30;99.90;;;;;;4961298;28;20493;-75
2023/06/01 01:25:49;;;;;;;3.45;1.50;;;10.30;99.90;;;;;;4962671;28;20043;-66
2023/06/01 01:28:29;;;;;;;2.63;1.50;;;10.20;99.90;;;;;;4961720;28;20133;-71
2023/06/01 01:30:58;;;;;;;2.03;1.35;;;10.20;99.90;;;;;;4961765;28;20082;-65
2023/06/01 01:33:27;;;;;;;2.88;1.50;;;10.20;99.90;;;;;;4974523;28;20078;-69
2023/06/01 01:35:56;;;;;;;1.70;1.60;;;10.10;99.90;;;;;;4959761;28;20081;-69
2023/06/01 01:38:23;;;;;;;4.43;1.95;;;10.10;99.90;;;;;;4961786;28;20066;-72
2023/06/01 01:40:52;;;;;;;3.92;1.85;;;10.10;99.90;;;;;;4963201;28;20050;-66
2023/06/01 01:43:21;;;;;;;1.70;1.42;;;10.00;99.90;;;;;;4975195;28;20061;-69
2023/06/01 01:45:54;;;;;;;3.85;1.60;;;10.00;99.90;;;;;;4962684;28;20058;-72
2023/06/01 01:48:32;;;;;;;2.30;1.45;;;10.00;99.90;;;;;;4960990;28;20058;-68
2023/06/01 01:51:07;;;;;;;2.42;2.00;;;10.00;99.90;;;;;;4974446;28;20057;-68
2023/06/01 01:53:35;;;;;;;2.60;1.83;;;9.90;99.90;;;;;;4961354;28;20097;-66
2023/06/01 01:56:04;;;;;;;2.28;2.08;;;9.90;99.90;;;;;;4961707;28;20571;-72
2023/06/01 01:58:33;;;;;;;1.83;1.40;;;9.90;99.90;;;;;;4959815;28;20054;-65
2023/06/01 02:01:02;;;;;;;2.35;2.00;;;9.80;99.90;;;;;;4974993;28;20050;-71
2023/06/01 02:03:30;;;;;;;3.22;1.40;;;9.80;99.90;;;;;;4961226;28;20069;-65
2023/06/01 02:05:57;;;;;;;4.57;2.15;;;9.80;99.90;;;;;;4961522;28;20623;-70
2023/06/01 02:08:24;;;;;;;1.48;1.35;;;9.80;99.90;;;;;;4958037;28;20717;-66
2023/06/01 02:10:51;;;;;;;1.90;1.67;;;9.80;99.90;;;;;;4961944;28;20066;-65
2023/06/01 02:13:18;;;;;;;5.20;3.15;;;9.80;99.90;;;;;;4960306;28;20047;-67
2023/06/01 02:15:45;;;;;;;5.63;2.47;;;9.80;99.90;;;;;;4960366;28;20046;-65
2023/06/01 02:18:11;;;;;;;3.75;2.63;;;9.80;99.90;;;;;;4959498;28;20063;-69
2023/06/01 02:20:38;;;;;;;3.70;2.42;;;9.80;99.90;;;;;;4958461;28;20039;-64
2023/06/01 02:23:05;;;;;;;2.85;1.70;;;9.80;99.90;;;;;;4959954;28;20548;-67
2023/06/01 02:25:32;;;;;;;2.40;2.20;;;9.90;99.90;;;;;;4960988;28;20046;-64
2023/06/01 02:28:00;;;;;;;1.95;1.60;;;9.80;99.90;;;;;;4977001;28;20054;-62
2023/06/01 02:30:27;;;;;;;2.00;1.55;;;9.80;99.90;;;;;;4958519;28;20059;-66
2023/06/01 02:32:54;;;;;;;2.42;2.22;;;9.80;99.90;;;;;;4959292;28;20062;-64
2023/06/01 02:35:22;;;;;;;4.25;2.45;;;9.80;99.90;;;;;;4958446;28;20069;-66
2023/06/01 02:37:49;;;;;;;3.15;2.03;;;9.80;99.90;;;;;;4958954;28;20063;-73
2023/06/01 02:40:17;;;;;;;6.35;2.20;;;9.90;99.90;;;;;;4974968;28;21512;-66
2023/06/01 02:42:44;;;;;;;2.17;1.67;;;9.80;99.90;;;;;;4961855;28;20049;-65
2023/06/01 02:45:11;;;;;;;2.80;1.77;;;9.90;99.90;;;;;;4973051;28;20062;-68
2023/06/01 02:47:37;;;;;;;2.17;1.98;;;9.90;99.90;;;;;;4960261;28;20567;-70
2023/06/01 02:50:05;;;;;;;2.47;1.58;;;9.90;99.90;;;;;;4961506;28;20066;-70
2023/06/01 02:52:37;;;;;;;5.53;2.65;;;9.90;99.90;;;;;;4958451;28;20125;-67
2023/06/01 02:55:04;;;;;;;2.33;1.92;;;10.00;99.90;;;;;;4959211;28;20051;-69
2023/06/01 02:57:47;;;;;;;1.98;1.58;;;10.00;99.90;;;;;;4960325;28;20047;-67
2023/06/01 03:00:17;;;;;;;2.60;1.67;;;10.00;99.90;;;;;;4958758;28;20043;-65
2023/06/01 03:02:48;;;;;;;3.80;2.95;;;10.10;99.90;;;;;;4959846;28;20061;-64
2023/06/01 03:05:16;;;;;;;1.83;1.67;;;10.10;99.90;;;;;;4960430;28;20062;-67
2023/06/01 03:07:48;;;;;;;2.67;2.30;;;10.20;99.90;;;;;;4959780;28;20051;-68
2023/06/01 03:10:25;;;;;;;2.80;2.05;;;10.20;99.90;;;;;;4955555;28;20137;-70
2023/06/01 03:13:06;;;;;;;3.90;2.00;;;10.30;99.90;;;;;;4972209;28;20137;-70
2023/06/01 03:15:33;;;;;;;2.38;2.13;;;10.40;99.90;;;;;;4959664;28;20074;-66
2023/06/01 03:18:03;;;;;;;2.72;1.52;;;10.40;99.90;;;;;;4960832;28;20199;-65
2023/06/01 03:20:30;;;;;;;2.50;2.03;;;10.40;99.90;;;;;;4969439;28;20420;-70
2023/06/01 03:22:56;;;;;;;1.80;1.52;;;10.40;99.90;;;;;;4957779;28;20501;-66
2023/06/01 03:25:24;;;;;;;3.78;1.90;;;10.50;99.90;;;;;;4954928;28;20046;-70
2023/06/01 03:27:51;;;;;;;2.80;2.33;;;10.50;99.90;;;;;;4954709;28;20078;-69
2023/06/01 03:30:19;;;;;;;2.03;1.50;;;10.60;99.90;;;;;;4968206;28;20185;-69
2023/06/01 03:32:46;;;;;;;3.25;2.88;;;10.60;99.90;;;;;;4956177;28;20197;-73
2023/06/01 03:35:13;;;;;;;2.88;2.00;;;10.70;99.90;;;;;;4968278;28;20484;-69
2023/06/01 03:37:42;;;;;;;2.83;1.30;;;10.70;99.90;;;;;;4971152;28;20061;-62
2023/06/01 03:40:10;;;;;;;2.55;1.67;;;10.70;99.90;;;;;;4974134;28;20082;-65
2023/06/01 03:42:46;;;;;;;3.28;2.63;;;10.70;99.90;;;;;;4959264;28;20109;-63
2023/06/01 03:45:16;;;;;;;3.97;1.90;;;10.80;99.90;;;;;;4974015;28;20362;-62
2023/06/01 03:47:43;;;;;;;2.28;1.80;;;10.90;99.90;;;;;;4964390;28;20053;-70
2023/06/01 03:50:11;;;;;;;3.28;2.10;;;11.00;99.90;;;;;;4974696;28;20059;-77
2023/06/01 03:52:38;;;;;;;1.77;1.67;;;11.10;99.90;;;;;;4962461;28;20174;-63
2023/06/01 03:55:10;;;;;;;1.52;1.20;;;11.10;99.90;;;;;;4963289;28;20054;-70
2023/06/01 03:57:57;;;;;;;4.20;1.98;;;11.10;99.90;;;;;;4964092;28;20050;-70
2023/06/01 04:00:24;;;;;;;11.50;3.92;;;11.20;99.90;;;;;;4961634;28;20076;-65
2023/06/01 04:02:58;;;;;;;6.63;2.53;;;11.30;99.90;;;;;;4965099;28;20086;-76
2023/06/01 04:05:26;;;;;;;3.78;1.58;;;11.40;99.90;;;;;;4977830;28;20066;-68
2023/06/01 04:07:55;;;;;;;2.15;1.77;;;11.50;99.90;;;;;;4962888;28;20058;-67
2023/06/01 04:10:22;;;;;;;3.78;1.67;;;11.60;99.90;;;;;;4962041;28;20062;-66
2023/06/01 04:12:50;;;;;;;2.72;1.33;;;11.70;99.90;;;;;;4974321;28;20379;-69
2023/06/01 04:15:20;;;;;;;3.35;2.00;;;11.80;99.90;;;;;;4975956;28;20120;-65
2023/06/01 04:17:47;;;;;;;3.70;1.98;;;11.80;99.90;;;;;;4962316;28;20061;-66
2023/06/01 04:20:16;;;;;;;2.15;1.40;;;11.80;99.90;;;;;;4971853;28;20046;-65
2023/06/01 04:22:44;;;;;;;2.40;1.98;;;11.90;99.90;;;;;;4964944;28;20493;-66
2023/06/01 04:25:18;;;;;;;1.25;0.98;;;12.00;99.90;;;;;;4964186;28;20061;-64
2023/06/01 04:27:54;;;;;;;4.03;1.95;;;12.00;99.90;;;;;;4975491;28;20054;-73
2023/06/01 04:30:23;;;;;;;7.22;1.95;;;12.10;99.90;;;;;;4974695;28;20898;-67
2023/06/01 04:32:51;;;;;;;5.03;1.42;;;12.20;99.90;;;;;;4963019;28;20460;-62
2023/06/01 04:35:20;;;;;;;2.75;1.80;;;12.30;99.90;;;;;;4961462;28;20121;-70
2023/06/01 04:37:49;;;;;;;2.83;1.65;;;12.30;99.90;;;;;;4964829;28;20837;-67
2023/06/01 04:40:16;;;;;;;3.20;2.00;;;12.40;99.90;;;;;;4961246;28;20086;-68
2023/06/01 04:42:48;;;;;;;4.18;2.95;;;12.40;99.90;;;;;;4976055;28;20951;-74
2023/06/01 04:45:18;;;;;;;6.07;1.75;;;12.50;99.90;;;;;;4962391;28;20066;-66
2023/06/01 04:47:46;;;;;;;6.47;2.00;;;12.60;99.90;;;;;;4974696;28;20082;-66
2023/06/01 04:50:20;;;;;;;3.97;1.83;;;12.70;99.90;;;;;;4960630;28;20065;-68
2023/06/01 04:52:49;;;;;;;4.70;1.75;;;12.70;99.90;;;;;;4975786;28;20531;-70
2023/06/01 04:55:16;;;;;;;2.63;2.03;;;12.70;99.90;;;;;;4974077;28;20051;-72
2023/06/01 04:57:43;;;;;;;5.57;2.25;;;12.90;99.90;;;;;;4964393;28;20083;-64
2023/06/01 05:00:18;;;;;;;2.22;1.00;;;12.90;99.90;;;;;;4973058;28;20082;-65
2023/06/01 05:02:47;;;;;;;2.65;1.98;;;13.00;99.90;;;;;;4970311;28;20050;-69
2023/06/01 05:05:15;;;;;;;2.22;1.50;;;13.00;99.90;;;;;;4954275;28;20943;-65
2023/06/01 05:07:44;;;;;;;3.97;1.55;;;13.20;99.90;;;;;;4970538;28;20062;-67
2023/06/01 05:10:12;;;;;;;2.97;1.50;;;13.20;99.90;;;;;;4955195;28;20072;-64
2023/06/01 05:12:43;;;;;;;1.67;1.50;;;13.20;99.90;;;;;;4958161;28;20117;-68
2023/06/01 05:15:11;;;;;;;4.55;1.30;;;13.10;99.90;;;;;;4957118;28;20062;-71
2023/06/01 05:17:39;;;;;;;6.53;2.58;;;13.10;99.90;;;;;;4957729;28;20051;-68
2023/06/01 05:20:11;;;;;;;3.42;1.70;;;13.20;99.90;;;;;;4958749;28;20058;-67
2023/06/01 05:22:40;;;;;;;5.85;1.50;;;13.20;99.90;;;;;;4969898;28;20045;-71
2023/06/01 05:25:07;;;;;;;3.80;1.83;;;13.20;99.90;;;;;;4956359;28;20059;-69
2023/06/01 05:27:35;;;;;;;2.72;1.70;;;13.30;99.90;;;;;;4969723;28;20497;-68
2023/06/01 05:30:03;;;;;;;2.22;1.35;;;13.30;99.90;;;;;;4955534;28;20513;-72
2023/06/01 05:32:30;;;;;;;2.28;1.35;;;13.20;99.90;;;;;;4968070;28;20505;-70
2023/06/01 05:35:04;;;;;;;4.82;2.13;;;13.20;99.90;;;;;;4954701;28;20936;-66
2023/06/01 05:37:33;;;;;;;1.65;1.45;;;13.20;99.90;;;;;;4951875;28;20051;-70
2023/06/01 05:40:00;;;;;;;2.90;1.55;;;13.30;99.90;;;;;;4956996;28;20089;-68
2023/06/01 05:42:27;;;;;;;4.35;1.77;;;13.30;99.90;;;;;;4967863;28;21385;-70
2023/06/01 05:44:54;;;;;;;4.57;1.90;;;13.30;99.90;;;;;;4955984;28;20133;-67
2023/06/01 05:47:21;;;;;;;5.07;1.42;;;13.30;99.90;;;;;;4968432;28;20059;-69
2023/06/01 05:49:48;;;;;;;6.55;2.65;;;13.40;99.90;;;;;;4966577;28;20181;-68
2023/06/01 05:52:15;;;;;;;2.88;1.90;;;13.50;99.90;;;;;;4952771;28;20058;-66
2023/06/01 05:54:42;;;;;;;2.78;1.40;;;13.50;99.90;;;;;;4968581;28;20858;-65
2023/06/01 05:57:09;;;;;;;6.75;1.80;;;13.50;99.90;;;;;;4958586;28;20047;-65
2023/06/01 05:59:37;;;;;;;12.23;2.67;;;13.60;99.90;;;;;;4960279;28;20062;-63
2023/06/01 06:02:04;;;;;;;3.17;1.15;;;13.60;99.90;;;;;;4959085;28;20648;-62
2023/06/01 06:04:31;;;;;;;3.70;1.35;;;13.70;99.90;;;;;;4958151;28;20770;-73
2023/06/01 06:06:58;;;;;;;7.65;2.10;;;13.70;99.90;;;;;;4960169;28;20065;-64
2023/06/01 06:09:25;;;;;;;3.67;1.90;;;13.80;99.90;;;;;;4960739;28;20197;-70
2023/06/01 06:11:52;;;;;;;3.20;1.48;;;13.80;99.90;;;;;;4961177;28;20190;-72
2023/06/01 06:14:19;;;;;;;2.03;1.50;;;13.70;99.90;;;;;;4958752;28;20051;-72
2023/06/01 06:16:46;;;;;;;3.55;1.13;;;13.70;99.90;;;;;;4960289;28;20109;-62
2023/06/01 06:19:15;;;;;;;3.22;1.40;;;13.80;99.90;;;;;;4960094;28;20109;-66
2023/06/01 06:21:42;;;;;;;2.60;1.27;;;13.80;99.90;;;;;;4961551;28;20050;-62
2023/06/01 06:24:10;;;;;;;3.03;1.52;;;13.90;99.90;;;;;;4959215;28;20488;-72
2023/06/01 06:26:36;;;;;;;3.72;1.25;;;13.90;99.90;;;;;;4959439;28;20061;-66
2023/06/01 06:29:03;;;;;;;2.03;1.58;;;13.90;99.90;;;;;;4960020;28;20051;-70
2023/06/01 06:31:30;;;;;;;2.20;1.20;;;13.90;99.90;;;;;;4961550;28;20558;-66
2023/06/01 06:33:59;;;;;;;5.07;1.17;;;13.90;99.90;;;;;;4960912;28;20050;-77
2023/06/01 06:36:26;;;;;;;3.35;1.75;;;14.00;99.90;;;;;;4957437;28;20142;-62
2023/06/01 06:38:52;;;;;;;5.63;1.60;;;13.90;99.90;;;;;;4944066;28;20149;-70
2023/06/01 06:41:20;;;;;;;3.38;1.75;;;14.00;99.90;;;;;;4954101;28;20043;-66
2023/06/01 06:43:47;;;;;;;1.92;1.20;;;14.00;99.90;;;;;;4956544;28;20101;-74
2023/06/01 06:46:14;;;;;;;2.78;1.20;;;14.10;99.90;;;;;;4955787;28;20043;-64
2023/06/01 06:48:41;;;;;;;1.67;0.90;;;14.10;99.90;;;;;;4957484;28;20574;-66
2023/06/01 06:51:08;;;;;;;1.20;1.10;;;14.10;99.90;;;;;;4955080;28;20086;-68
2023/06/01 06:53:35;;;;;;;4.63;1.63;;;14.10;99.90;;;;;;4956780;28;20050;-64
2023/06/01 06:56:02;;;;;;;5.32;1.60;;;14.20;99.90;;;;;;4957062;28;20046;-67
2023/06/01 06:58:29;;;;;;;1.42;1.17;;;14.20;99.90;;;;;;4956869;28;20579;-74
2023/06/01 07:00:56;;;;;;;5.05;2.58;;;14.30;99.90;;;;;;4959319;28;20497;-68
2023/06/01 07:03:23;;;;;;;6.05;1.05;;;14.40;99.90;;;;;;4958596;28;20051;-71
2023/06/01 07:05:50;;;;;;;8.93;2.00;;;14.60;99.90;;;;;;4957854;28;20054;-68
2023/06/01 07:08:17;;;;;;;16.33;1.83;;;14.60;99.90;;;;;;4956960;28;20041;-64
2023/06/01 07:10:44;;;;;;;7.72;1.27;;;14.50;99.90;;;;;;4958682;28;20058;-72
2023/06/01 07:13:11;;;;;;;2.97;1.92;;;14.40;99.90;;;;;;4958280;28;20203;-73
2023/06/01 07:15:38;;;;;;;5.18;0.90;;;14.20;99.90;;;;;;4958486;28;20137;-67
2023/06/01 07:18:06;;;;;;;4.00;1.52;;;14.00;99.90;;;;;;4958268;28;20796;-67
2023/06/01 07:20:33;;;;;;;3.95;0.90;;;13.90;99.90;;;;;;4954672;28;20059;-66
2023/06/01 07:23:00;;;;;;;7.65;1.08;;;13.80;99.90;;;;;;4958342;28;20075;-69
2023/06/01 07:25:27;;;;;;;6.88;1.80;;;13.70;99.90;;;;;;4959413;28;20062;-66
2023/06/01 07:27:56;;;;;;;2.65;0.82;;;13.70;99.90;;;;;;4959189;28;20098;-67
2023/06/01 07:30:23;;;;;;;5.38;1.55;;;13.80;99.90;;;;;;4957166;28;20911;-63
2023/06/01 07:32:50;;;;;;;12.20;1.63;;;13.70;99.90;;;;;;4960294;28;20086;-68
2023/06/01 07:35:17;;;;;;;5.03;1.55;;;13.70;99.90;;;;;;4957596;28;21340;-70
2023/06/01 07:37:45;;;;;;;4.97;1.02;;;13.70;99.90;;;;;;4958871;28;20461;-69
2023/06/01 07:40:13;;;;;;;2.22;0.90;;;13.70;99.90;;;;;;4957017;28;20161;-66
2023/06/01 07:42:40;;;;;;;5.15;1.98;;;13.70;99.90;;;;;;4958401;28;20070;-65
2023/06/01 07:45:08;;;;;;;1.95;0.95;;;13.70;99.90;;;;;;4959281;28;20059;-75
2023/06/01 07:47:35;;;;;;;6.40;2.97;;;13.80;99.90;;;;;;4959013;28;20058;-66
2023/06/01 07:50:03;;;;;;;11.05;2.03;;;13.90;99.90;;;;;;4957296;28;20150;-70
2023/06/01 07:52:31;;;;;;;7.45;1.65;;;14.00;99.90;;;;;;4955456;28;20105;-65
2023/06/01 07:54:58;;;;;;;5.20;1.40;;;14.10;99.90;;;;;;4956838;28;20051;-66
2023/06/01 07:57:25;;;;;;;3.60;0.88;;;14.20;99.90;;;;;;4956858;28;20595;-66
2023/06/01 07:59:52;;;;;;;5.97;1.70;;;14.10;99.90;;;;;;4957048;28;20077;-68
2023/06/01 08:02:20;;;;;;;9.82;1.25;;;14.00;99.90;;;;;;4955242;28;20101;-66
2023/06/01 08:04:47;;;;;;;6.78;1.83;;;13.90;99.90;;;;;;4954265;28;20119;-66
2023/06/01 08:07:16;;;;;;;12.75;1.35;;;13.90;99.90;;;;;;4955783;28;20109;-64
2023/06/01 08:09:43;;;;;;;7.97;1.67;;;13.70;99.90;;;;;;4953850;28;20058;-63
2023/06/01 08:12:11;;;;;;;6.70;1.45;;;13.50;99.90;;;;;;4953898;28;20055;-68
2023/06/01 08:14:38;;;;;;;1.77;1.10;;;13.50;99.90;;;;;;4952284;28;20047;-69
2023/06/01 08:17:06;;;;;;;4.88;1.63;;;13.40;99.90;;;;;;4955089;28;20054;-68
2023/06/01 08:19:35;;;;;;;4.43;0.88;;;13.40;99.90;;;;;;4950936;28;20065;-65
2023/06/01 08:22:05;;;;;;;5.65;0.90;;;13.50;99.90;;;;;;4953908;28;20061;-64
2023/06/01 08:24:35;;;;;;;1.50;1.08;;;13.50;99.90;;;;;;4951446;28;20956;-63
2023/06/01 08:27:15;;;;;;;3.00;1.40;;;13.70;99.90;;;;;;4954599;28;20085;-70
2023/06/01 08:29:42;;;;;;;8.98;1.48;;;13.80;99.90;;;;;;4953352;28;20058;-68
2023/06/01 08:32:09;;;;;;;3.25;1.20;;;13.90;99.80;;;;;;4957614;28;20074;-67
2023/06/01 08:34:36;;;;;;;7.72;1.35;;;13.90;99.10;;;;;;4954700;28;20156;-67
2023/06/01 08:37:03;;;;;;;1.65;0.50;;;13.80;98.70;;;;;;4958537;28;20508;-61
2023/06/01 08:39:30;;;;;;;3.80;0.80;;;13.70;99.10;;;;;;4956670;28;20086;-65
2023/06/01 08:42:21;;;;;;;6.07;2.58;;;13.70;99.00;;;;;;4957998;28;20173;-73
2023/06/01 08:44:51;;;;;;;;;;;13.60;99.30;;;;;;4955632;28;20141;-66
2023/06/01 08:47:18;;;;;;;5.57;1.57;;;13.30;99.30;;;;;;4957329;28;19930;-66
2023/06/01 08:49:45;;;;;;;2.92;0.70;;;13.10;98.10;;;;;;4955894;28;20117;-70
2023/06/01 08:52:14;;;;;;;4.38;1.25;;;13.10;97.80;;;;;;4955783;28;20109;-70
2023/06/01 08:54:41;;;;;;;2.72;1.13;;;12.90;97.30;;;;;;4956709;28;20113;-70
2023/06/01 08:57:08;;;;;;;3.85;0.85;;;12.90;98.10;;;;;;4956127;28;20051;-72
2023/06/01 08:59:36;;;;;;;4.93;0.85;;;12.90;98.20;;;;;;4956779;28;20042;-68
2023/06/01 09:02:03;;;;;;;8.15;2.05;;;12.90;97.80;;;;;;4957574;28;20054;-67
2023/06/01 09:04:32;;;;;;;5.18;1.10;;;13.00;97.90;;;;;;4954288;28;20151;-71
2023/06/01 09:06:58;;;;;;;4.60;1.00;;;13.00;98.20;;;;;;4957420;28;20126;-72
2023/06/01 09:09:25;;;;;;;4.45;0.93;;;13.00;99.00;;;;;;4955933;28;20774;-72
2023/06/01 09:12:16;;;;;;;3.00;1.20;;;13.00;98.80;;;;;;4957463;28;20531;-74
2023/06/01 09:14:43;;;;;;;5.85;1.33;;;13.00;98.00;;;;;;4951603;28;20069;-64
2023/06/01 09:17:15;;;;;;;4.10;1.70;;;13.10;97.80;;;;;;4957472;28;20078;-68
2023/06/01 09:19:45;;;;;;;2.60;1.13;;;13.10;97.60;;;;;;4955258;28;20059;-66
2023/06/01 09:22:12;;;;;;;5.45;1.20;;;13.10;97.70;;;;;;4955445;28;20051;-62
2023/06/01 09:24:42;;;;;;;1.92;1.15;;;13.00;97.80;;;;;;4955207;28;20055;-68
2023/06/01 09:27:10;;;;;;;7.10;1.48;;;13.00;98.30;;;;;;4956891;28;20125;-68
2023/06/01 09:29:36;;;;;;;3.35;0.93;;;12.80;98.70;;;;;;4957716;28;20133;-65
2023/06/01 09:32:04;;;;;;;19.10;1.90;;;12.60;99.10;;;;;;4956813;28;20082;-70
2023/06/01 09:34:31;;;;;;;6.03;1.15;;;12.50;99.40;;;;;;4953861;28;20054;-67
2023/06/01 09:37:05;;;;;;;3.03;1.05;;;12.50;99.20;;;;;;4957273;28;20153;-63
2023/06/01 09:39:34;;;;;;;3.35;1.83;;;12.40;99.00;;;;;;4955909;28;20560;-74
2023/06/01 09:42:04;;;;;;;5.05;1.02;;;12.30;98.80;;;;;;4956481;28;20138;-64
2023/06/01 09:44:33;;;;;;;10.93;1.48;;;12.30;99.30;;;;;;4954578;28;20108;-67
2023/06/01 09:47:05;;;;;;;2.50;0.70;;;12.30;99.10;;;;;;4957448;28;20520;-64
2023/06/01 09:49:37;;;;;;;5.85;0.88;;;12.20;98.80;;;;;;4954152;28;20378;-66
2023/06/01 09:52:05;;;;;;;6.28;1.17;;;12.20;98.20;;;;;;4955948;28;20145;-66
2023/06/01 09:54:34;;;;;;;8.00;0.98;;;12.30;98.50;;;;;;4955148;28;20240;-68
2023/06/01 09:57:02;;;;;;;4.93;1.48;;;12.20;97.50;;;;;;4956612;28;20145;-69
2023/06/01 09:59:41;;;;;;;4.63;1.92;;;12.30;98.10;;;;;;4956391;28;20170;-71
2023/06/01 10:02:15;;;;;;;5.80;1.15;;;12.40;98.30;;;;;;4955799;28;20058;-69
2023/06/01 10:04:47;;;;;;;5.57;1.08;;;12.60;98.20;;;;;;4952285;28;20117;-63
2023/06/01 10:07:15;;;;;;;17.20;2.55;;;12.60;98.60;;;;;;4956325;28;20047;-62
2023/06/01 10:09:45;;;;;;;8.52;1.48;;;12.60;97.90;;;;;;4954531;28;20086;-73
2023/06/01 10:12:12;;;;;;;9.20;1.30;;;12.30;98.40;;;;;;4955127;28;20061;-68
2023/06/01 10:14:39;;;;;;;4.43;1.00;;;12.30;98.40;;;;;;4954802;28;20046;-61
2023/06/01 10:17:07;;;;;;;2.70;0.80;;;12.30;98.40;;;;;;4956035;28;20064;-70
2023/06/01 10:19:37;;;;;;;7.47;1.77;;;12.20;98.90;;;;;;4954490;28;20350;-63
2023/06/01 10:22:05;;;;;;;1.35;0.85;;;12.10;97.90;;;;;;4955353;28;20122;-69
2023/06/01 10:24:35;;;;;;;2.80;1.17;;;12.10;97.70;;;;;;4952593;28;20050;-66
2023/06/01 10:27:15;;;;;;;6.93;0.90;;;12.00;97.70;;;;;;4955804;28;20447;-67
2023/06/01 10:29:43;;;;;;;2.63;1.63;;;11.90;98.00;;;;;;4954816;28;20059;-73
2023/06/01 10:32:44;;;;;;;5.93;0.80;;;11.90;98.10;;;;;;4956680;28;20051;-61
2023/06/01 10:35:32;;;;;;;4.10;1.52;;;11.80;98.30;;;;;;4953190;28;20070;-69
2023/06/01 10:38:14;;;;;;;4.47;1.17;;;11.70;98.60;;;;;;4954831;28;20453;-71
2023/06/01 10:40:43;;;;;;;2.65;0.80;;;11.50;99.00;;;;;;4954665;28;20082;-64
2023/06/01 10:43:36;;;;;;;1.10;0.80;;;11.50;99.90;;;;;;4957117;28;20049;-62
2023/06/01 10:46:23;;;;;;;4.40;1.33;;;11.40;99.90;;;;;;4954238;28;20066;-70
2023/06/01 10:48:55;;;;;;;3.20;1.05;;;11.30;99.90;;;;;;4953776;28;20129;-68
2023/06/01 10:51:27;;;;;;;5.05;1.13;;;11.20;99.90;;;;;;4953238;28;20509;-62
2023/06/01 10:54:15;;;;;;;3.40;0.80;;;11.20;99.90;;;;;;4955230;28;20078;-68
2023/06/01 10:56:41;;;;;;;3.67;1.27;;;11.10;99.90;;;;;;4953544;28;20497;-66
2023/06/01 10:59:08;;;;;;;8.25;1.80;;;11.20;99.90;;;;;;4956386;28;20066;-72
2023/06/01 11:01:46;;;;;;;6.78;1.67;;;11.20;99.90;;;;;;4955508;28;20148;-69
2023/06/01 11:04:13;;;;;;;2.47;1.25;;;11.20;99.90;;;;;;4954198;28;20051;-63
2023/06/01 11:06:43;;;;;;;2.88;0.77;;;11.10;99.90;;;;;;4955884;28;20469;-65
2023/06/01 11:09:12;;;;;;;6.97;1.25;;;11.00;99.90;;;;;;4957094;28;20564;-70
2023/06/01 11:11:48;;;;;;;1.73;0.98;;;11.00;99.90;;;;;;4956671;28;20054;-71
2023/06/01 11:14:16;;;;;;;3.72;1.25;;;10.90;99.90;;;;;;4952963;28;20062;-66
2023/06/01 11:16:44;;;;;;;2.83;1.13;;;11.00;99.90;;;;;;4955854;28;20134;-65
2023/06/01 11:19:18;;;;;;;7.28;1.13;;;11.00;99.90;;;;;;4956540;28;20070;-73
2023/06/01 11:21:45;;;;;;;1.65;0.70;;;11.10;99.90;;;;;;4954410;28;20061;-62
2023/06/01 11:24:14;;;;;;;3.95;1.20;;;11.10;99.90;;;;;;4952160;28;20522;-62
2023/06/01 11:26:50;;;;;;;5.97;1.30;;;11.10;99.90;;;;;;4953354;28;20057;-63
2023/06/01 11:29:25;;;;;;;4.45;0.90;;;11.20;99.90;;;;;;4953077;28;20055;-66
2023/06/01 11:31:56;;;;;;;3.45;1.80;;;11.30;99.90;;;;;;4953672;28;20186;-63
2023/06/01 11:34:43;;;;;;;3.03;1.40;;;11.40;99.90;;;;;;4950576;28;20051;-65
2023/06/01 11:37:15;;;;;;;1.77;0.70;;;11.50;99.90;;;;;;4952516;28;20051;-73
2023/06/01 11:39:42;;;;;;;5.93;1.05;;;11.50;99.90;;;;;;4953469;28;20469;-65
2023/06/01 11:42:10;;;;;;;1.65;0.77;;;11.50;99.90;;;;;;4954148;28;20141;-74
2023/06/01 11:44:41;;;;;;;1.80;0.85;;;11.60;99.70;;;;;;4952028;28;20051;-68
2023/06/01 11:47:09;;;;;;;3.15;0.70;;;11.70;99.90;;;;;;4953321;28;20054;-71
2023/06/01 11:49:50;;;;;;;2.28;1.00;;;11.80;99.90;;;;;;4952847;28;20078;-66
2023/06/01 11:52:18;;;;;;;3.72;1.13;;;12.00;99.90;;;;;;4954031;28;20054;-66
2023/06/01 11:54:45;;;;;;;2.17;0.98;;;12.10;99.50;;;;;;4954481;28;20259;-67
2023/06/01 11:57:13;;;;;;;4.10;1.60;;;12.20;98.80;;;;;;4955590;28;20703;-66
2023/06/01 11:59:42;;;;;;;2.13;1.10;;;12.30;99.00;;;;;;4954412;28;21405;-66
2023/06/01 12:02:27;;;;;;;3.90;0.82;;;12.50;99.80;;;;;;4955522;28;20177;-68
2023/06/01 12:04:59;;;;;;;2.55;0.80;;;12.70;98.70;;;;;;4953991;28;20051;-65
2023/06/01 12:07:26;;;;;;;1.98;1.00;;;12.90;98.00;;;;;;4960797;28;20158;-72
2023/06/01 12:09:55;;;;;;;3.53;0.95;;;13.00;97.50;;;;;;4960092;28;20500;-68
2023/06/01 12:12:24;;;;;;;4.72;0.65;;;13.10;96.70;;;;;;4959491;28;20113;-71
2023/06/01 12:14:51;;;;;;;4.40;1.08;;;13.00;97.70;;;;;;4958017;28;20572;-67
2023/06/01 12:17:19;;;;;;;1.20;0.93;;;13.00;96.10;;;;;;4959372;28;20531;-67
2023/06/01 12:19:48;;;;;;;3.03;0.90;;;12.90;96.10;;;;;;4957552;28;20059;-60
2023/06/01 12:22:16;;;;;;;3.47;0.80;;;12.80;96.40;;;;;;4956203;28;21011;-66
2023/06/01 12:24:44;;;;;;;0.85;0.68;;;12.80;96.20;;;;;;4956187;28;20054;-69
2023/06/01 12:27:19;;;;;;;3.17;0.88;;;12.70;96.00;;;;;;4958255;28;20058;-68
2023/06/01 12:29:50;;;;;;;4.45;1.85;;;12.80;96.70;;;;;;4956501;28;20060;-63
2023/06/01 12:32:17;;;;;;;11.48;1.33;;;12.80;96.60;;;;;;4955358;28;20592;-75
2023/06/01 12:35:03;;;;;;;1.20;0.65;;;12.90;95.70;;;;;;4954240;28;21111;-70
2023/06/01 12:37:30;;;;;;;2.22;1.02;;;13.10;95.90;;;;;;4958371;28;20054;-69
2023/06/01 12:39:57;;;;;;;2.00;0.90;;;13.10;94.90;;;;;;4956294;28;20155;-71
2023/06/01 12:42:35;;;;;;;3.88;0.90;;;13.10;95.40;;;;;;4955000;28;20066;-66
2023/06/01 12:45:03;;;;;;;5.97;1.25;;;13.00;94.70;;;;;;4957112;28;20062;-73
2023/06/01 12:47:40;;;;;;;1.77;0.70;;;12.90;94.40;;;;;;4956573;28;20125;-67
2023/06/01 12:50:12;;;;;;;3.10;0.82;;;12.90;94.90;;;;;;4957109;28;20058;-69
2023/06/01 12:52:44;;;;;;;4.47;1.20;;;12.90;95.10;;;;;;4957980;28;20142;-68
2023/06/01 12:55:11;;;;;;;3.08;0.70;;;13.00;94.30;;;;;;4957976;28;20536;-70
2023/06/01 12:57:38;;;;;;;1.95;0.93;;;13.10;94.70;;;;;;4957501;28;21568;-71
2023/06/01 13:00:06;;;;;;;1.40;0.80;;;13.10;93.70;;;;;;4966471;28;20142;-71